Главная страница
METAR-TAF:

METAR-TAF

Аэропорты :

Кингстон, Ямайка

широта: 17-56N, долгота: 076-47W, высота над уровнем моря: 3 м

Текущие метеонаблюдения

Эта сводка был подготовлена 1 час и 5 минут назад, в 03:00 UTC
Ветер 4 Узел от западный
Температура 27°C
Влажность 74%
Давление 1013 hPa
Видимость 10 км и более
небольшая облачность на высоте 2200 фута

METAR: MKJP 200300Z 27004KT 9999 FEW022 27/22 Q1013

Время: 23:05 (04:05 UTC)

Прогноз

Эта сводка был подготовлена 4 часа и 50 минут назад, в 23:15 UTC
Прогноз действительный с 20-го 00 UTC до 20-го 24 UTC
Ветер 16 Узел от юго-восточный
Видимость 10 км и более
небольшая облачность на высоте 2200 фута
небольшая облачность на высоте 2400 фута, Кучево-дождевые.
изменения
С 20-го 02 UTC до 20-го 04 UTC
Ветер 7 Узел от северный
изменения
С 20-го 14 UTC до 20-го 16 UTC
Ветер 20 Узел от юго-восточный

TAF: MKJP 192315Z 2000/2024 14016KT 9999 FEW022 FEW024CB BECMG 2002/2004 01007KT BECMG 2014/2016 14020KT

Метеонаблюдения и прогнозы для более 4000 аэропортов (сводки METAR и TAF).

Имеющиеся станции представлены на карте желтыми и красными точками.

Чтобы увидеть название станции, наведите на нее мышь.

Затем щелкните, чтобы увидеть метеонаблюдения и метеопрогнозы.

Управление картой: чтобы увеличить масштаб, щелкните зеленые кнопки с черным крестиком; чтобы уменьшить масштаб, щелкните зеленую кнопку с тире; для просмотра соседних карт щелкайте зеленые стрелки.


METAR-TAF: